createdAt,value
2023-04-09T00:00:23.957Z,92.0813
2023-04-09T00:01:24.868Z,91.9999
2023-04-09T00:02:25.727Z,92.0394
2023-04-09T00:03:27.115Z,92.1676
2023-04-09T00:04:28.353Z,92.2159
2023-04-09T00:05:29.252Z,92.2954
2023-04-09T00:06:29.953Z,92.3750
2023-04-09T00:07:30.894Z,92.4088
2023-04-09T00:08:31.580Z,92.3795
2023-04-09T00:09:31.785Z,92.5716
2023-04-09T00:10:32.453Z,92.6413
2023-04-09T00:11:33.310Z,92.7384
2023-04-09T00:12:34.075Z,92.8676
2023-04-09T00:13:39.625Z,92.8197
2023-04-09T00:14:36.589Z,92.8104
2023-04-09T00:15:36.903Z,92.6862
2023-04-09T00:16:38.021Z,92.7468
2023-04-09T00:17:39.197Z,92.7559
2023-04-09T00:18:40.012Z,92.7602
2023-04-09T00:19:41.385Z,92.8994
2023-04-09T00:20:42.299Z,93.0781
2023-04-09T00:21:43.012Z,93.1437
2023-04-09T00:22:43.797Z,93.0509
2023-04-09T00:23:44.519Z,93.1517
2023-04-09T00:24:45.353Z,93.2371
2023-04-09T00:25:46.141Z,93.2930
2023-04-09T00:26:46.989Z,93.3408
2023-04-09T00:27:47.725Z,93.4347
2023-04-09T00:28:48.652Z,93.4783
2023-04-09T00:29:49.335Z,93.5564
2023-04-09T00:30:50.219Z,93.7148
2023-04-09T00:31:51.063Z,93.6716
2023-04-09T00:32:52.336Z,93.7761
2023-04-09T00:33:53.108Z,93.8455
2023-04-09T00:34:53.995Z,94.0048
2023-04-09T00:35:54.778Z,93.8966
2023-04-09T00:36:55.738Z,93.9550
2023-04-09T00:37:56.742Z,94.1047
2023-04-09T00:38:57.747Z,94.2032
2023-04-09T00:39:58.522Z,94.1490
2023-04-09T00:40:59.430Z,94.2192
2023-04-09T00:42:00.172Z,94.2339
2023-04-09T00:43:01.094Z,94.3887
2023-04-09T00:44:01.796Z,94.4724
2023-04-09T00:45:02.722Z,94.5393
2023-04-09T00:46:03.483Z,94.5953
2023-04-09T00:47:04.622Z,94.6968
2023-04-09T00:48:05.423Z,94.7023
2023-04-09T00:49:05.534Z,94.7215
2023-04-09T00:50:06.269Z,94.7416
2023-04-09T00:51:07.096Z,94.7897
2023-04-09T00:52:07.918Z,94.7791
2023-04-09T00:53:08.727Z,94.8156
2023-04-09T00:54:09.465Z,94.8595
2023-04-09T00:55:10.281Z,94.8512
2023-04-09T00:56:11.023Z,94.8847
2023-04-09T00:57:11.884Z,94.8694
2023-04-09T00:58:12.592Z,94.8620
2023-04-09T00:59:13.454Z,94.8379
2023-04-09T01:00:14.108Z,94.9256
2023-04-09T01:01:15.121Z,94.8954
2023-04-09T01:02:16.395Z,94.9255
2023-04-09T01:03:17.559Z,95.0747
2023-04-09T01:04:17.614Z,95.1259
2023-04-09T01:05:18.273Z,95.1739
2023-04-09T01:06:19.173Z,95.2727
2023-04-09T01:07:19.941Z,95.3293
2023-04-09T01:08:20.745Z,95.3203
2023-04-09T01:09:21.519Z,95.3638
2023-04-09T01:10:22.339Z,95.4182
2023-04-09T01:11:23.136Z,95.3200
2023-04-09T01:12:23.921Z,95.2133
2023-04-09T01:13:24.747Z,95.1683
2023-04-09T01:14:25.577Z,95.1219
2023-04-09T01:15:26.323Z,95.1146
2023-04-09T01:16:27.308Z,95.1941
2023-04-09T01:17:27.720Z,95.2015
2023-04-09T01:18:28.830Z,95.2107
2023-04-09T01:19:29.791Z,95.1581
2023-04-09T01:20:30.671Z,95.0861
2023-04-09T01:21:31.296Z,95.0571
2023-04-09T01:22:32.257Z,95.1061
2023-04-09T01:23:32.955Z,95.1336
2023-04-09T01:24:33.800Z,95.1599
2023-04-09T01:25:34.607Z,95.2040
2023-04-09T01:26:35.413Z,95.2532
2023-04-09T01:27:36.199Z,95.2208
2023-04-09T01:28:37.017Z,95.2161
2023-04-09T01:29:37.784Z,95.3426
2023-04-09T01:30:38.777Z,95.3339
2023-04-09T01:31:39.574Z,95.3089
2023-04-09T01:32:40.639Z,95.3118
2023-04-09T01:33:41.438Z,95.2632
2023-04-09T01:34:42.354Z,95.2962
2023-04-09T01:35:43.016Z,95.2590
2023-04-09T01:36:44.012Z,95.3379
2023-04-09T01:37:44.672Z,95.3771
2023-04-09T01:38:45.649Z,95.4155
2023-04-09T01:39:46.924Z,95.3757
2023-04-09T01:40:47.793Z,95.4223
2023-04-09T01:41:48.613Z,95.3499
2023-04-09T01:42:49.607Z,95.3453
2023-04-09T01:43:50.400Z,95.3530
2023-04-09T01:44:51.338Z,95.3219
2023-04-09T01:45:52.178Z,95.3197
2023-04-09T01:46:53.532Z,95.4017
2023-04-09T01:47:54.637Z,95.3944
2023-04-09T01:48:55.664Z,95.3517
2023-04-09T01:49:56.552Z,95.3429
2023-04-09T01:50:57.312Z,95.3370
2023-04-09T01:51:58.260Z,95.3812
2023-04-09T01:52:59.019Z,95.4428
2023-04-09T01:54:00.329Z,95.5694
2023-04-09T01:55:01.821Z,95.5241
2023-04-09T01:56:02.038Z,95.6281
2023-04-09T01:57:02.141Z,95.6448
2023-04-09T01:58:03.524Z,95.5844
2023-04-09T01:59:03.389Z,95.5652
2023-04-09T02:00:04.002Z,95.6178
2023-04-09T02:01:05.251Z,95.6869
2023-04-09T02:02:06.546Z,95.7261
2023-04-09T02:03:06.662Z,95.8121
2023-04-09T02:04:07.505Z,95.8240
2023-04-09T02:05:08.183Z,95.8593
2023-04-09T02:06:08.582Z,95.8708
2023-04-09T02:07:09.490Z,95.9436
2023-04-09T02:08:10.013Z,96.0270
2023-04-09T02:09:11.108Z,96.1027
2023-04-09T02:10:11.156Z,96.2263
2023-04-09T02:11:11.186Z,96.3408
2023-04-09T02:12:12.474Z,96.3789
2023-04-09T02:13:12.633Z,96.4215
2023-04-09T02:14:13.212Z,96.4837
2023-04-09T02:15:14.415Z,96.5031
2023-04-09T02:16:15.214Z,96.4985
2023-04-09T02:17:15.379Z,96.5081
2023-04-09T02:18:15.382Z,96.5522
2023-04-09T02:19:16.626Z,96.5292
2023-04-09T02:20:18.428Z,96.5247
2023-04-09T02:21:17.924Z,96.5368
2023-04-09T02:22:18.813Z,96.5487
2023-04-09T02:23:19.598Z,96.5315
2023-04-09T02:24:20.610Z,96.4959
2023-04-09T02:25:21.458Z,96.4856
2023-04-09T02:26:22.429Z,96.5276
2023-04-09T02:27:23.194Z,96.5695
2023-04-09T02:28:24.185Z,96.5861
2023-04-09T02:29:25.765Z,96.5834
2023-04-09T02:30:26.563Z,96.6147
2023-04-09T02:31:27.837Z,96.5391
2023-04-09T02:32:28.703Z,96.5155
2023-04-09T02:33:28.835Z,96.4918
2023-04-09T02:34:29.570Z,96.4927
2023-04-09T02:35:30.529Z,96.5325
2023-04-09T02:36:31.523Z,96.4876
2023-04-09T02:37:32.458Z,96.3830
2023-04-09T02:38:33.347Z,96.3131
2023-04-09T02:39:34.322Z,96.3212
2023-04-09T02:40:35.071Z,96.2424
2023-04-09T02:41:35.998Z,96.2226
2023-04-09T02:42:36.809Z,96.1742
2023-04-09T02:43:37.807Z,96.1245
2023-04-09T02:44:38.629Z,96.1269
2023-04-09T02:45:39.571Z,96.1615
2023-04-09T02:46:40.590Z,96.1717
2023-04-09T02:47:40.772Z,96.1946
2023-04-09T02:48:41.677Z,96.1889
2023-04-09T02:49:42.863Z,96.2238
2023-04-09T02:50:43.589Z,96.2248
2023-04-09T02:51:44.623Z,96.2616
2023-04-09T02:52:45.420Z,96.3039
2023-04-09T02:53:46.535Z,96.3164
2023-04-09T02:54:47.287Z,96.3616
2023-04-09T02:55:48.385Z,96.3283
2023-04-09T02:56:49.181Z,96.2889
2023-04-09T02:57:50.454Z,96.2055
2023-04-09T02:58:51.330Z,96.2628
2023-04-09T02:59:51.502Z,96.2171
2023-04-09T03:00:52.160Z,96.1124
2023-04-09T03:01:53.541Z,96.1288
2023-04-09T03:02:54.121Z,96.1766
2023-04-09T03:03:54.841Z,96.1957
2023-04-09T03:04:54.996Z,96.2509
2023-04-09T03:05:55.894Z,96.2604
2023-04-09T03:06:56.897Z,96.2983
2023-04-09T03:07:57.709Z,96.2959
2023-04-09T03:08:58.727Z,96.4063
2023-04-09T03:09:59.530Z,96.4365
2023-04-09T03:11:00.468Z,96.4553
2023-04-09T03:12:01.264Z,96.5539
2023-04-09T03:13:02.350Z,96.5755
2023-04-09T03:14:03.143Z,96.6565
2023-04-09T03:15:04.157Z,96.7373
2023-04-09T03:16:05.133Z,96.8446
2023-04-09T03:17:06.266Z,96.9458
2023-04-09T03:18:07.225Z,97.0148
2023-04-09T03:19:08.354Z,97.0580
2023-04-09T03:20:09.192Z,97.0893
2023-04-09T03:21:10.874Z,97.1622
2023-04-09T03:22:10.394Z,97.2578
2023-04-09T03:23:11.612Z,97.3242
2023-04-09T03:24:12.448Z,97.3758
2023-04-09T03:25:13.384Z,97.4204
2023-04-09T03:26:14.253Z,97.4362
2023-04-09T03:27:15.207Z,97.4839
2023-04-09T03:28:16.018Z,97.5335
2023-04-09T03:29:17.064Z,97.5402
2023-04-09T03:30:17.794Z,97.6142
2023-04-09T03:31:18.892Z,97.6153
2023-04-09T03:32:20.057Z,97.6346
2023-04-09T03:33:21.230Z,97.6377
2023-04-09T03:34:22.032Z,97.6691
2023-04-09T03:35:23.029Z,97.6890
2023-04-09T03:36:23.970Z,97.6991
2023-04-09T03:37:24.963Z,97.7521
2023-04-09T03:38:25.735Z,97.7862
2023-04-09T03:39:26.740Z,97.7924
2023-04-09T03:40:27.147Z,97.7822
2023-04-09T03:41:28.081Z,97.7819
2023-04-09T03:42:28.971Z,97.7525
2023-04-09T03:43:29.974Z,97.7798
2023-04-09T03:44:30.727Z,97.8142
2023-04-09T03:45:31.720Z,97.8874
2023-04-09T03:46:32.782Z,97.9296
2023-04-09T03:47:32.831Z,97.9132
2023-04-09T03:48:33.682Z,97.9443
2023-04-09T03:49:34.660Z,97.9775
2023-04-09T03:50:35.446Z,98.0406
2023-04-09T03:51:36.392Z,98.0713
2023-04-09T03:52:37.181Z,98.1124
2023-04-09T03:53:38.297Z,98.0950
2023-04-09T03:54:39.092Z,98.0971
2023-04-09T03:55:40.143Z,98.1496
2023-04-09T03:56:41.051Z,98.1743
2023-04-09T03:57:42.010Z,98.2055
2023-04-09T03:58:42.956Z,98.2522
2023-04-09T03:59:44.001Z,98.2609
2023-04-09T04:00:45.023Z,98.3006
2023-04-09T04:01:46.426Z,98.3202
2023-04-09T04:02:47.188Z,98.3071
2023-04-09T04:03:47.906Z,98.3624
2023-04-09T04:04:48.190Z,98.3882
2023-04-09T04:05:48.102Z,98.3927
2023-04-09T04:06:49.081Z,98.4371
2023-04-09T04:07:50.060Z,98.4786
2023-04-09T04:08:51.294Z,98.5323
2023-04-09T04:09:51.626Z,98.5650
2023-04-09T04:10:52.599Z,98.5654
2023-04-09T04:11:53.667Z,98.5698
2023-04-09T04:12:54.643Z,98.5382
2023-04-09T04:13:56.051Z,98.5623
2023-04-09T04:14:56.903Z,98.5838
2023-04-09T04:15:57.985Z,98.5683
2023-04-09T04:16:59.082Z,98.5381
2023-04-09T04:18:00.253Z,98.5348
2023-04-09T04:19:00.230Z,98.5073
2023-04-09T04:20:01.306Z,98.5259
2023-04-09T04:21:02.343Z,98.4879
2023-04-09T04:22:03.334Z,98.4974
2023-04-09T04:23:04.873Z,98.4962
2023-04-09T04:24:05.954Z,98.5199
2023-04-09T04:25:06.876Z,98.5081
2023-04-09T04:26:07.947Z,98.5187
2023-04-09T04:27:08.812Z,98.5291
2023-04-09T04:28:09.839Z,98.4993
2023-04-09T04:29:09.924Z,98.5009
2023-04-09T04:30:10.878Z,98.4949
2023-04-09T04:31:11.790Z,98.4987
2023-04-09T04:32:13.008Z,98.4828
2023-04-09T04:33:14.114Z,98.4702
2023-04-09T04:34:15.313Z,98.4054
2023-04-09T04:35:16.288Z,98.3873
2023-04-09T04:36:17.574Z,98.3561
2023-04-09T04:37:18.403Z,98.2770
2023-04-09T04:38:19.462Z,98.1624
2023-04-09T04:39:19.519Z,97.9340
2023-04-09T04:40:20.632Z,97.8175
2023-04-09T04:41:21.508Z,97.7423
2023-04-09T04:42:22.550Z,97.7154
2023-04-09T04:43:23.457Z,97.7220
2023-04-09T04:44:24.589Z,97.6509
2023-04-09T04:45:25.497Z,97.6023
2023-04-09T04:46:25.899Z,97.5166
2023-04-09T04:47:26.800Z,97.5021
2023-04-09T04:48:28.130Z,97.4445
2023-04-09T04:49:29.060Z,97.3812
2023-04-09T04:50:29.188Z,97.3179
2023-04-09T04:51:30.116Z,97.2465
2023-04-09T04:52:31.199Z,97.0695
2023-04-09T04:53:32.168Z,96.9399
2023-04-09T04:54:33.256Z,96.8993
2023-04-09T04:55:34.246Z,96.8255
2023-04-09T04:56:35.353Z,96.8288
2023-04-09T04:57:36.191Z,96.8009
2023-04-09T04:58:37.240Z,96.6256
2023-04-09T04:59:38.243Z,96.5115
2023-04-09T05:00:39.316Z,96.3766
2023-04-09T05:01:40.750Z,96.2708
2023-04-09T05:02:41.305Z,96.0938
2023-04-09T05:03:42.616Z,95.9587
2023-04-09T05:04:42.565Z,95.8595
2023-04-09T05:05:43.606Z,95.7574
2023-04-09T05:06:44.624Z,95.7383
2023-04-09T05:07:45.810Z,95.7154
2023-04-09T05:08:46.775Z,95.6857
2023-04-09T05:09:48.115Z,95.6559
2023-04-09T05:10:49.178Z,95.6374
2023-04-09T05:11:50.069Z,95.6280
2023-04-09T05:12:51.270Z,95.5579
2023-04-09T05:13:52.189Z,95.5210
2023-04-09T05:14:53.300Z,95.4772
2023-04-09T05:15:54.203Z,95.3599
2023-04-09T05:16:55.509Z,95.4151
2023-04-09T05:17:56.720Z,95.4832
2023-04-09T05:18:57.914Z,95.5907
2023-04-09T05:19:58.974Z,95.6435
2023-04-09T05:21:00.098Z,95.6659
2023-04-09T05:22:01.016Z,95.7399
2023-04-09T05:23:02.090Z,95.7949
2023-04-09T05:24:03.006Z,95.8112
2023-04-09T05:25:04.145Z,95.8138
2023-04-09T05:26:05.066Z,95.8755
2023-04-09T05:27:06.214Z,95.9794
2023-04-09T05:28:07.118Z,96.0931
2023-04-09T05:29:08.274Z,96.1465
2023-04-09T05:30:09.179Z,96.2241
2023-04-09T05:31:10.394Z,96.2574
2023-04-09T05:32:10.498Z,96.3547
2023-04-09T05:33:11.786Z,96.4198
2023-04-09T05:34:12.670Z,96.4648
2023-04-09T05:35:13.843Z,96.4613
2023-04-09T05:36:14.987Z,96.4126
2023-04-09T05:37:16.078Z,96.3438
2023-04-09T05:38:17.010Z,96.3279
2023-04-09T05:39:17.264Z,96.3708
2023-04-09T05:40:18.307Z,96.4317
2023-04-09T05:41:19.424Z,96.4032
2023-04-09T05:42:20.497Z,96.3174
2023-04-09T05:43:21.874Z,96.3418
2023-04-09T05:44:22.854Z,96.3794
2023-04-09T05:45:24.997Z,96.3143
2023-04-09T05:46:23.879Z,96.2522
2023-04-09T05:47:25.209Z,96.2614
2023-04-09T05:48:26.668Z,96.1968
2023-04-09T05:49:27.505Z,96.1665
2023-04-09T05:50:28.759Z,96.1872
2023-04-09T05:51:29.526Z,96.1896
2023-04-09T05:52:30.682Z,96.1639
2023-04-09T05:53:31.597Z,96.1477
2023-04-09T05:54:32.669Z,96.0802
2023-04-09T05:55:33.787Z,96.0950
2023-04-09T05:56:34.882Z,96.1856
2023-04-09T05:57:35.862Z,96.2317
2023-04-09T05:58:36.920Z,96.1386
2023-04-09T05:59:37.893Z,96.1145
2023-04-09T06:00:39.036Z,96.1219
2023-04-09T06:01:40.039Z,96.1254
2023-04-09T06:02:40.513Z,95.9757
2023-04-09T06:03:41.234Z,95.8618
2023-04-09T06:04:41.818Z,95.8424
2023-04-09T06:05:42.975Z,95.7592
2023-04-09T06:06:43.991Z,95.6613
2023-04-09T06:07:45.116Z,95.6741
2023-04-09T06:08:46.090Z,95.5501
2023-04-09T06:09:47.283Z,95.5975
2023-04-09T06:10:48.185Z,95.5431
2023-04-09T06:11:49.343Z,95.4609
2023-04-09T06:12:50.220Z,95.3640
2023-04-09T06:13:51.484Z,95.2614
2023-04-09T06:14:51.721Z,95.2899
2023-04-09T06:15:51.675Z,95.3508
2023-04-09T06:16:52.747Z,95.1988
2023-04-09T06:17:54.144Z,94.8770
2023-04-09T06:18:55.452Z,94.6240
2023-04-09T06:19:56.471Z,94.4431
2023-04-09T06:20:57.724Z,94.0766
2023-04-09T06:21:58.770Z,93.8602
2023-04-09T06:22:59.917Z,93.4166
2023-04-09T06:24:00.411Z,92.8989
2023-04-09T06:25:01.540Z,92.9405
2023-04-09T06:26:02.711Z,93.0012
2023-04-09T06:27:03.716Z,92.8725
2023-04-09T06:28:04.888Z,92.4997
2023-04-09T06:29:05.973Z,92.4624
2023-04-09T06:30:07.184Z,92.0969
2023-04-09T06:31:08.345Z,92.0693
2023-04-09T06:32:08.906Z,91.7326
2023-04-09T06:33:09.553Z,91.4786
2023-04-09T06:34:10.078Z,91.3455
2023-04-09T06:35:13.017Z,91.3195
2023-04-09T06:36:14.286Z,91.1559
2023-04-09T06:37:14.291Z,91.2696
2023-04-09T06:38:15.293Z,91.0656
2023-04-09T06:39:16.433Z,90.4757
2023-04-09T06:40:17.327Z,90.3171
2023-04-09T06:41:18.326Z,90.3294
2023-04-09T06:42:19.424Z,90.1078
2023-04-09T06:43:20.629Z,90.0122
2023-04-09T06:44:21.829Z,89.6641
2023-04-09T06:45:22.058Z,89.2248
2023-04-09T06:46:23.203Z,88.7079
2023-04-09T06:47:23.322Z,88.4236
2023-04-09T06:48:24.376Z,87.8085
2023-04-09T06:49:25.566Z,87.9805
2023-04-09T06:50:26.680Z,88.1404
2023-04-09T06:51:26.662Z,88.4377
2023-04-09T06:52:27.749Z,88.4888
2023-04-09T06:53:29.042Z,88.2821
2023-04-09T06:54:29.006Z,88.0841
2023-04-09T06:55:30.114Z,87.9820
2023-04-09T06:56:31.237Z,87.6648
2023-04-09T06:57:32.343Z,88.1587
2023-04-09T06:58:33.512Z,87.8739
2023-04-09T06:59:33.794Z,87.3978
2023-04-09T07:00:34.856Z,87.5067
2023-04-09T07:01:35.066Z,88.0804
2023-04-09T07:02:35.670Z,87.5013
2023-04-09T07:03:36.452Z,86.7617
2023-04-09T07:04:37.478Z,87.0460
2023-04-09T07:05:38.738Z,86.6151
2023-04-09T07:06:39.952Z,86.7186
2023-04-09T07:07:41.072Z,85.8994
2023-04-09T07:08:42.547Z,85.8533
2023-04-09T07:09:43.553Z,85.3090
2023-04-09T07:10:44.884Z,85.5423
2023-04-09T07:11:45.941Z,85.1441
2023-04-09T07:12:46.245Z,84.9910
2023-04-09T07:13:47.275Z,85.0026
2023-04-09T07:15:47.918Z,86.0367
2023-04-09T07:16:48.057Z,85.0026
2023-04-09T07:17:49.192Z,85.9556
2023-04-09T07:18:50.484Z,85.2175
2023-04-09T07:19:51.567Z,84.3979
2023-04-09T07:20:52.743Z,84.4036
2023-04-09T07:21:53.769Z,83.6467
2023-04-09T07:22:54.910Z,83.4830
2023-04-09T07:23:55.956Z,83.2284
2023-04-09T07:24:57.112Z,83.5318
2023-04-09T07:25:58.231Z,83.6828
2023-04-09T07:26:59.442Z,83.3428
2023-04-09T07:28:00.490Z,83.3890
2023-04-09T07:29:01.664Z,83.2986
2023-04-09T07:30:02.722Z,83.3942
2023-04-09T07:31:03.909Z,83.9608
2023-04-09T07:32:04.843Z,83.3288
2023-04-09T07:33:04.924Z,83.2862
2023-04-09T07:34:05.033Z,83.5129
2023-04-09T07:35:06.173Z,82.4903
2023-04-09T07:36:07.250Z,81.7488
2023-04-09T07:37:08.295Z,80.2942
2023-04-09T07:38:09.519Z,80.6488
2023-04-09T07:39:10.064Z,79.6050
2023-04-09T07:40:11.309Z,80.0243
2023-04-09T07:41:12.414Z,80.5920
2023-04-09T07:42:13.674Z,79.9577
2023-04-09T07:43:14.768Z,80.4683
2023-04-09T07:44:15.970Z,80.8232
2023-04-09T07:45:17.177Z,80.4736
2023-04-09T07:46:18.442Z,80.5684
2023-04-09T07:47:18.569Z,80.8107
2023-04-09T07:48:18.827Z,81.0947
2023-04-09T07:49:20.017Z,80.7493
2023-04-09T07:50:20.685Z,80.7160
2023-04-09T07:51:21.848Z,80.4839
2023-04-09T07:52:23.027Z,81.0259
2023-04-09T07:53:24.154Z,80.5691
2023-04-09T07:54:25.334Z,80.5816
2023-04-09T07:55:25.704Z,80.0850
2023-04-09T07:56:26.962Z,81.2560
2023-04-09T07:57:27.999Z,81.2784
2023-04-09T07:58:28.013Z,81.2119
2023-04-09T07:59:29.073Z,81.7845
2023-04-09T08:00:30.216Z,82.1762
2023-04-09T08:01:31.357Z,81.9807
2023-04-09T08:02:32.474Z,82.6923
2023-04-09T08:03:32.982Z,82.8221
2023-04-09T08:04:32.978Z,83.4459
2023-04-09T08:05:33.710Z,83.6690
2023-04-09T08:06:34.901Z,83.6056
2023-04-09T08:07:36.352Z,83.0234
2023-04-09T08:08:37.434Z,83.0752
2023-04-09T08:09:37.829Z,82.9756
2023-04-09T08:10:39.031Z,83.3541
2023-04-09T08:11:40.303Z,83.7217
2023-04-09T08:12:41.351Z,83.5778
2023-04-09T08:13:42.560Z,83.3705
2023-04-09T08:14:43.652Z,83.3996
2023-04-09T08:15:45.006Z,83.6731
2023-04-09T08:16:46.509Z,83.4253
2023-04-09T08:17:46.429Z,83.3801
2023-04-09T08:18:47.736Z,82.9096
2023-04-09T08:19:48.272Z,82.4660
2023-04-09T08:20:49.204Z,81.6242
2023-04-09T08:21:50.282Z,82.0345
2023-04-09T08:22:51.475Z,82.5647
2023-04-09T08:23:52.554Z,81.9205
2023-04-09T08:24:53.718Z,80.7875
2023-04-09T08:25:53.908Z,79.5185
2023-04-09T08:26:55.112Z,79.0616
2023-04-09T08:27:56.228Z,79.0609
2023-04-09T08:28:56.629Z,78.3090
2023-04-09T08:29:57.714Z,78.0749
2023-04-09T08:30:59.000Z,78.0791
2023-04-09T08:31:59.119Z,78.0886
2023-04-09T08:32:59.327Z,77.6155
2023-04-09T08:34:00.383Z,77.4087
2023-04-09T08:35:00.433Z,77.0132
2023-04-09T08:36:03.346Z,76.4569
2023-04-09T08:37:02.444Z,76.7442
2023-04-09T08:38:03.615Z,76.9276
2023-04-09T08:39:04.066Z,77.1205
2023-04-09T08:40:05.305Z,76.9160
2023-04-09T08:41:06.681Z,76.9715
2023-04-09T08:42:07.849Z,77.4695
2023-04-09T08:43:09.252Z,77.3531
2023-04-09T08:44:09.310Z,77.7155
2023-04-09T08:45:15.290Z,78.0791
2023-04-09T08:46:10.968Z,78.0074
2023-04-09T08:47:11.757Z,76.8213
2023-04-09T08:48:12.394Z,76.8786
2023-04-09T08:49:12.604Z,76.3267
2023-04-09T08:50:13.822Z,76.1237
2023-04-09T08:51:13.957Z,76.7520
2023-04-09T08:52:15.076Z,77.1862
2023-04-09T08:53:15.138Z,77.0319
2023-04-09T08:54:16.263Z,76.4476
2023-04-09T08:55:16.678Z,76.2740
2023-04-09T08:56:17.853Z,76.1263
2023-04-09T08:57:17.867Z,76.3902
2023-04-09T08:58:19.081Z,76.3781
2023-04-09T08:59:19.511Z,76.3214
2023-04-09T09:00:20.811Z,76.4539
2023-04-09T09:01:21.015Z,76.4559
2023-04-09T09:02:21.558Z,76.2786
2023-04-09T09:03:22.581Z,76.1343
2023-04-09T09:04:23.383Z,76.4446
2023-04-09T09:05:23.283Z,76.8081
2023-04-09T09:06:24.688Z,76.6153
2023-04-09T09:07:25.406Z,77.1722
2023-04-09T09:08:26.818Z,77.3636
2023-04-09T09:09:28.010Z,76.7621
2023-04-09T09:10:29.347Z,76.5017
2023-04-09T09:11:30.556Z,76.5657
2023-04-09T09:12:31.995Z,76.6447
2023-04-09T09:13:33.371Z,76.2337
2023-04-09T09:14:33.964Z,75.9059
2023-04-09T09:15:35.142Z,75.4266
2023-04-09T09:16:36.438Z,75.2957
2023-04-09T09:17:38.063Z,75.4270
2023-04-09T09:18:39.309Z,74.9223
2023-04-09T09:19:40.546Z,74.7178
2023-04-09T09:20:41.696Z,74.6241
2023-04-09T09:21:43.071Z,74.8534
2023-04-09T09:22:44.285Z,74.4226
2023-04-09T09:23:44.571Z,73.8021
2023-04-09T09:24:47.155Z,73.1957
2023-04-09T09:25:46.921Z,73.1562
2023-04-09T09:26:46.909Z,72.9304
2023-04-09T09:27:47.214Z,72.7967
2023-04-09T09:28:48.600Z,72.8265
2023-04-09T09:29:50.137Z,72.5746
2023-04-09T09:30:51.553Z,72.6401
2023-04-09T09:31:51.435Z,72.6675
2023-04-09T09:32:51.754Z,72.2848
2023-04-09T09:33:52.898Z,71.9854
2023-04-09T09:34:54.442Z,71.2513
2023-04-09T09:35:54.597Z,71.6794
2023-04-09T09:36:54.719Z,71.5848
2023-04-09T09:37:56.020Z,70.7209
2023-04-09T09:38:57.054Z,71.1724
2023-04-09T09:39:58.478Z,71.2055
2023-04-09T09:40:59.754Z,71.2692
2023-04-09T09:42:01.046Z,70.5636
2023-04-09T09:43:01.119Z,70.4510
2023-04-09T09:44:02.245Z,70.1596
2023-04-09T09:45:03.612Z,69.8521
2023-04-09T09:46:04.848Z,70.0704
2023-04-09T09:47:05.152Z,70.3173
2023-04-09T09:48:05.328Z,69.9396
2023-04-09T09:49:05.845Z,70.0321
2023-04-09T09:50:07.429Z,70.1694
2023-04-09T09:51:08.659Z,69.8409
2023-04-09T09:52:10.077Z,69.7100
2023-04-09T09:53:11.217Z,69.4994
2023-04-09T09:54:12.169Z,69.7074
2023-04-09T09:55:13.339Z,69.7788
2023-04-09T09:56:13.339Z,69.4495
2023-04-09T09:57:14.545Z,69.4756
2023-04-09T09:58:15.959Z,69.8577
2023-04-09T09:59:17.227Z,69.7427
2023-04-09T10:00:19.486Z,69.4908
2023-04-09T10:01:19.664Z,69.1879
2023-04-09T10:02:19.929Z,69.0104
2023-04-09T10:03:20.867Z,68.2186
2023-04-09T10:04:20.980Z,67.8372
2023-04-09T10:05:21.225Z,68.2403
2023-04-09T10:06:22.418Z,68.1272
2023-04-09T10:07:22.491Z,67.9352
2023-04-09T10:08:24.006Z,67.7843
2023-04-09T10:09:24.029Z,67.8903
2023-04-09T10:10:25.195Z,67.4764
2023-04-09T10:11:25.417Z,66.9281
2023-04-09T10:12:26.634Z,67.0512
2023-04-09T10:13:26.751Z,67.0649
2023-04-09T10:14:28.081Z,67.3172
2023-04-09T10:15:29.460Z,67.6035
2023-04-09T10:16:29.864Z,67.1463
2023-04-09T10:17:30.037Z,67.3390
2023-04-09T10:18:31.277Z,66.6742
2023-04-09T10:19:31.300Z,66.5869
2023-04-09T10:20:32.605Z,66.1880
2023-04-09T10:21:34.176Z,66.2464
2023-04-09T10:22:34.583Z,66.7181
2023-04-09T10:23:35.952Z,66.5442
2023-04-09T10:24:37.393Z,66.5882
2023-04-09T10:25:37.521Z,66.0840
2023-04-09T10:26:38.724Z,66.2790
2023-04-09T10:27:38.954Z,66.1034
2023-04-09T10:28:40.286Z,65.4688
2023-04-09T10:29:40.714Z,65.1767
2023-04-09T10:30:40.416Z,64.6977
2023-04-09T10:31:41.734Z,64.5803
2023-04-09T10:32:42.001Z,64.1973
2023-04-09T10:33:43.292Z,63.4969
2023-04-09T10:34:44.661Z,63.4922
2023-04-09T10:35:45.889Z,62.4957
2023-04-09T10:36:46.149Z,62.5809
2023-04-09T10:37:47.375Z,61.6958
2023-04-09T10:38:48.736Z,60.9633
2023-04-09T10:39:49.971Z,60.8479
2023-04-09T10:40:50.556Z,60.9388
2023-04-09T10:41:50.772Z,59.8133
2023-04-09T10:42:52.157Z,59.4354
2023-04-09T10:43:53.277Z,59.5168
2023-04-09T10:45:24.350Z,58.3616
2023-04-09T10:46:25.259Z,59.1825
2023-04-09T10:47:26.487Z,59.6541
2023-04-09T10:48:26.523Z,58.7567
2023-04-09T10:49:26.766Z,58.0536
2023-04-09T10:50:28.045Z,58.4659
2023-04-09T10:52:28.312Z,58.6010
2023-04-09T10:53:29.723Z,58.7800
2023-04-09T10:54:31.111Z,57.8986
2023-04-09T10:55:31.124Z,56.9200
2023-04-09T10:56:31.186Z,56.5253
2023-04-09T10:57:31.482Z,56.9445
2023-04-09T10:58:32.756Z,57.1467
2023-04-09T10:59:32.912Z,56.9411
2023-04-09T11:00:32.970Z,56.6396
2023-04-09T11:01:33.205Z,58.0652
2023-04-09T11:02:33.895Z,57.0078
2023-04-09T11:03:34.778Z,55.6104
2023-04-09T11:04:35.867Z,55.2914
2023-04-09T11:05:36.688Z,55.0893
2023-04-09T11:06:37.930Z,55.1142
2023-04-09T11:07:38.113Z,55.1328
2023-04-09T11:08:39.398Z,55.7143
2023-04-09T11:09:40.845Z,56.8225
2023-04-09T11:10:42.169Z,56.0855
2023-04-09T11:11:42.330Z,55.0436
2023-04-09T11:12:43.333Z,53.9430
2023-04-09T11:13:43.382Z,53.9962
2023-04-09T11:14:44.749Z,52.3569
2023-04-09T11:15:44.881Z,51.4293
2023-04-09T11:16:46.208Z,50.5517
2023-04-09T11:17:47.451Z,50.4262
2023-04-09T11:18:47.767Z,50.8598
2023-04-09T11:19:49.020Z,50.2240
2023-04-09T11:20:49.270Z,49.1862
2023-04-09T11:21:49.558Z,49.5246
2023-04-09T11:22:49.637Z,48.4896
2023-04-09T11:23:49.704Z,49.7235
2023-04-09T11:24:51.252Z,50.0720
2023-04-09T11:25:52.493Z,49.4493
2023-04-09T11:26:52.624Z,48.8629
2023-04-09T11:27:53.165Z,49.4681
2023-04-09T11:28:54.113Z,49.4515
2023-04-09T11:29:54.177Z,50.5815
2023-04-09T11:30:55.628Z,51.2370
2023-04-09T11:31:55.787Z,50.6427
2023-04-09T11:32:56.167Z,50.1437
2023-04-09T11:33:56.432Z,49.5334
2023-04-09T11:34:56.942Z,49.3399
2023-04-09T11:35:57.337Z,50.0748
2023-04-09T11:36:57.725Z,49.0624
2023-04-09T11:37:59.411Z,48.9394
2023-04-09T11:38:59.667Z,49.5022
2023-04-09T11:40:00.080Z,49.8673
2023-04-09T11:41:01.395Z,49.8722
2023-04-09T11:42:01.526Z,49.0040
2023-04-09T11:43:02.899Z,49.5572
2023-04-09T11:44:03.155Z,48.6524
2023-04-09T11:45:03.154Z,49.5611
2023-04-09T11:46:03.354Z,48.3420
2023-04-09T11:47:03.451Z,48.2712
2023-04-09T11:48:04.142Z,49.3636
2023-04-09T11:49:04.147Z,49.6485
2023-04-09T11:50:04.240Z,47.8185
2023-04-09T11:51:05.679Z,45.4827
2023-04-09T11:52:05.851Z,42.8965
2023-04-09T11:53:07.119Z,41.7397
2023-04-09T11:54:06.159Z,40.4736
2023-04-09T11:55:06.304Z,39.5045
2023-04-09T11:56:07.653Z,38.7752
2023-04-09T11:57:07.980Z,38.1287
2023-04-09T11:58:08.024Z,38.0563
2023-04-09T11:59:08.544Z,38.0862
2023-04-09T12:00:09.836Z,37.2888
2023-04-09T12:01:10.329Z,37.7200
2023-04-09T12:02:10.877Z,36.8492
2023-04-09T12:03:11.438Z,37.9318
2023-04-09T12:04:11.837Z,38.3809
2023-04-09T12:05:11.952Z,36.9775
2023-04-09T12:06:12.850Z,36.3714
2023-04-09T12:07:14.390Z,35.4890
2023-04-09T12:08:14.382Z,37.5432
2023-04-09T12:09:14.896Z,36.8427
2023-04-09T12:10:16.222Z,37.6718
2023-04-09T12:11:17.088Z,38.6125
2023-04-09T12:12:17.086Z,38.2516
2023-04-09T12:13:17.338Z,38.6669
2023-04-09T12:14:18.558Z,38.3455
2023-04-09T12:15:18.690Z,38.0819
2023-04-09T12:16:18.719Z,39.7621
2023-04-09T12:17:19.597Z,40.1743
2023-04-09T12:18:19.852Z,38.5511